Kouseimaru No3 — JD3480 — position and weather

sailwx.info

Track history (hours):
 
Tides and Currents Weather Stations Pressure Air Temp Water Temp Dewpoint Dewpoint Depression Visibility Wind Speed Wind Dir Waves Ship Positions

Kouseimaru No3

Last reported at 2018-Jun-19 01:51 UTC. Time now 2018-Jun-25 05:52 UTC.
Position N 33°52' E 135°02'.

Length 75 m; draft 3 m.

Type: Cargo ship. MMSI: 431004193.

Date/timePositionNaut miles runAvg speedWind from/ knotsBaromVisibWave heightAir tempDewpointWater temp
2018-Jun-19 01:51N 33°52' E 135°02'410.7
2018-Jun-19 01:27N 33°55' E 134°59'811.1
2018-Jun-19 00:45N 34°01' E 134°52'311.3
2018-Jun-19 00:30N 34°03' E 134°50'1111.5
2018-Jun-18 23:33N 34°12' E 134°41'212.4
2018-Jun-18 23:21N 34°13' E 134°39'510.8
2018-Jun-18 22:52N 34°17' E 134°34'411.2
2018-Jun-18 22:30N 34°18' E 134°30'611.8
2018-Jun-18 22:00N 34°20' E 134°23'  
Track history (hours):
 
Tides and Currents Weather Stations Pressure Air Temp Water Temp Dewpoint Dewpoint Depression Visibility Wind Speed Wind Dir Waves Ship Positions

Kouseimaru No3

Last reported at 2018-Jun-19 01:51 UTC. Time now 2018-Jun-25 05:52 UTC.
Position N 33°52' E 135°02'.

Length 75 m; draft 3 m.

Type: Cargo ship. MMSI: 431004193.

Date/timePositionNaut miles runAvg speedWind from/ knotsBaromVisibWave heightAir tempDewpointWater temp
2018-Jun-19 01:51N 33°52' E 135°02'410.7
2018-Jun-19 01:27N 33°55' E 134°59'811.1
2018-Jun-19 00:45N 34°01' E 134°52'311.3
2018-Jun-19 00:30N 34°03' E 134°50'1111.5
2018-Jun-18 23:33N 34°12' E 134°41'212.4
2018-Jun-18 23:21N 34°13' E 134°39'510.8
2018-Jun-18 22:52N 34°17' E 134°34'411.2
2018-Jun-18 22:30N 34°18' E 134°30'611.8
2018-Jun-18 22:00N 34°20' E 134°23'  

Dump ship's entire track history